KHPN

Westchester County Airport

White Plains, New York, USA
KHPN 231403Z 2314/2412 VRB04KT P6SM SCT025 BKN150 TEMPO 2314/2318 BKN025 FM231900 15004KT P6SM SCT025 BKN035 FM232300 VRB03KT P6SM SCT035 SCT250 AMD NOT SKED
Issued Valid From Valid To
Sep-23 @ 14:03 UTC
(31 minutes ago)
Sep-23 @ 14:00 UTC
(34 minutes ago)
Sep-24 @ 12:00 UTC
(in 21 hours)
to
to
to
to
KHPN 231403Z 2314/2412 VRB04KT P6SM SCT025 BKN150 TEMPO 2314/2318 BKN025 FM231900 15004KT P6SM SCT025 BKN035 FM232300 VRB03KT P6SM SCT035 SCT250 AMD NOT SKED
Issued Sep-23 @ 14:03 UTC
(31 minutes ago)
Valid From Sep-23 @ 14:00 UTC
(34 minutes ago)
Valid To Sep-24 @ 12:00 UTC
(in 21 hours)
-
-
-
-